X  Fermer Données météorologiques d'aviation de Metar     EHKD De Kooy Airport
Température
9°C Température
8°C Point de rosée
94% Humidité



Vent
32 KM/H
20 MPH
9 M/S
17 KTS



220°
SO
Conditions actuelles

Bruine Bruine
Pression 995.94 (hPa) - 29.41 (inHg)
Visibilité 1.9 (mile) - 3.1 (km)
Aéroport
Code de l'aéroport EHKD

Emplacement: De Kooy Airport
Distance: 34 (km)

Metar:
EHKD 212125Z AUTO 22017KT 190V250 3100 DZ OVC003 09/08 Q0996 YLO

Temps: 21-02-2024 22:25 CET